sensor_id;sensor_type;location;lat;lon;timestamp;temperature;humidity
23237;DHT22;11787;52.018;8.570;2023-02-15T00:02:13;2.10;99.90
23237;DHT22;11787;52.018;8.570;2023-02-15T00:04:38;2.00;99.90
23237;DHT22;11787;52.018;8.570;2023-02-15T00:07:14;2.10;99.90
23237;DHT22;11787;52.018;8.570;2023-02-15T00:09:39;2.00;99.90
23237;DHT22;11787;52.018;8.570;2023-02-15T00:12:05;1.90;99.90
23237;DHT22;11787;52.018;8.570;2023-02-15T00:14:30;1.90;99.90
23237;DHT22;11787;52.018;8.570;2023-02-15T00:16:56;1.90;99.90
23237;DHT22;11787;52.018;8.570;2023-02-15T00:19:25;1.80;99.90
23237;DHT22;11787;52.018;8.570;2023-02-15T00:21:50;1.90;99.90
23237;DHT22;11787;52.018;8.570;2023-02-15T00:24:17;1.80;99.90
23237;DHT22;11787;52.018;8.570;2023-02-15T00:26:43;1.90;99.90
23237;DHT22;11787;52.018;8.570;2023-02-15T00:29:09;1.80;99.90
23237;DHT22;11787;52.018;8.570;2023-02-15T00:31:35;1.70;99.90
23237;DHT22;11787;52.018;8.570;2023-02-15T00:34:05;1.70;99.90
23237;DHT22;11787;52.018;8.570;2023-02-15T00:36:30;1.70;99.90
23237;DHT22;11787;52.018;8.570;2023-02-15T00:38:56;1.70;99.90
23237;DHT22;11787;52.018;8.570;2023-02-15T00:41:21;1.70;99.90
23237;DHT22;11787;52.018;8.570;2023-02-15T00:43:47;1.70;99.90
23237;DHT22;11787;52.018;8.570;2023-02-15T00:46:12;1.80;99.90
23237;DHT22;11787;52.018;8.570;2023-02-15T00:48:38;1.70;99.90
23237;DHT22;11787;52.018;8.570;2023-02-15T00:51:03;1.70;99.90
23237;DHT22;11787;52.018;8.570;2023-02-15T00:53:29;1.70;99.90
23237;DHT22;11787;52.018;8.570;2023-02-15T00:55:55;1.60;99.90
23237;DHT22;11787;52.018;8.570;2023-02-15T00:58:20;1.60;99.90
23237;DHT22;11787;52.018;8.570;2023-02-15T01:00:46;1.60;99.90
23237;DHT22;11787;52.018;8.570;2023-02-15T01:03:13;1.70;99.90
23237;DHT22;11787;52.018;8.570;2023-02-15T01:05:39;1.60;99.90
23237;DHT22;11787;52.018;8.570;2023-02-15T01:08:04;1.50;99.90
23237;DHT22;11787;52.018;8.570;2023-02-15T01:10:30;1.40;99.90
23237;DHT22;11787;52.018;8.570;2023-02-15T01:12:56;1.30;99.90
23237;DHT22;11787;52.018;8.570;2023-02-15T01:15:31;1.40;99.90
23237;DHT22;11787;52.018;8.570;2023-02-15T01:17:56;1.40;99.90
23237;DHT22;11787;52.018;8.570;2023-02-15T01:20:22;1.40;99.90
23237;DHT22;11787;52.018;8.570;2023-02-15T01:22:48;1.40;99.90
23237;DHT22;11787;52.018;8.570;2023-02-15T01:25:18;1.50;99.90
23237;DHT22;11787;52.018;8.570;2023-02-15T01:27:44;1.50;99.90
23237;DHT22;11787;52.018;8.570;2023-02-15T01:30:09;1.40;99.90
23237;DHT22;11787;52.018;8.570;2023-02-15T01:32:35;1.40;99.90
23237;DHT22;11787;52.018;8.570;2023-02-15T01:35:01;1.40;99.90
23237;DHT22;11787;52.018;8.570;2023-02-15T01:37:26;1.40;99.90
23237;DHT22;11787;52.018;8.570;2023-02-15T01:39:52;1.30;99.90
23237;DHT22;11787;52.018;8.570;2023-02-15T01:42:22;1.30;99.90
23237;DHT22;11787;52.018;8.570;2023-02-15T01:44:55;1.30;99.90
23237;DHT22;11787;52.018;8.570;2023-02-15T01:47:38;1.20;99.90
23237;DHT22;11787;52.018;8.570;2023-02-15T01:52:33;1.20;99.90
23237;DHT22;11787;52.018;8.570;2023-02-15T01:54:59;1.10;99.90
23237;DHT22;11787;52.018;8.570;2023-02-15T01:57:25;1.10;99.90
23237;DHT22;11787;52.018;8.570;2023-02-15T01:59:52;1.00;99.90
23237;DHT22;11787;52.018;8.570;2023-02-15T02:02:19;1.10;99.90
23237;DHT22;11787;52.018;8.570;2023-02-15T02:04:53;1.10;99.90
23237;DHT22;11787;52.018;8.570;2023-02-15T02:07:22;1.20;99.90
23237;DHT22;11787;52.018;8.570;2023-02-15T02:09:48;1.20;99.90
23237;DHT22;11787;52.018;8.570;2023-02-15T02:12:14;1.20;99.90
23237;DHT22;11787;52.018;8.570;2023-02-15T02:14:40;1.10;99.90
23237;DHT22;11787;52.018;8.570;2023-02-15T02:17:12;1.20;99.90
23237;DHT22;11787;52.018;8.570;2023-02-15T02:24:59;1.10;99.90
23237;DHT22;11787;52.018;8.570;2023-02-15T02:27:36;1.00;99.90
23237;DHT22;11787;52.018;8.570;2023-02-15T02:35:16;1.00;99.90
23237;DHT22;11787;52.018;8.570;2023-02-15T02:38:27;1.00;99.90
23237;DHT22;11787;52.018;8.570;2023-02-15T02:43:11;1.10;99.90
23237;DHT22;11787;52.018;8.570;2023-02-15T02:45:45;1.00;99.90
23237;DHT22;11787;52.018;8.570;2023-02-15T02:48:13;1.00;99.90
23237;DHT22;11787;52.018;8.570;2023-02-15T02:50:40;1.00;99.90
23237;DHT22;11787;52.018;8.570;2023-02-15T02:53:06;0.90;99.90
23237;DHT22;11787;52.018;8.570;2023-02-15T02:57:58;0.80;99.90
23237;DHT22;11787;52.018;8.570;2023-02-15T03:00:25;0.80;99.90
23237;DHT22;11787;52.018;8.570;2023-02-15T03:02:53;0.80;99.90
23237;DHT22;11787;52.018;8.570;2023-02-15T03:05:21;0.80;99.90
23237;DHT22;11787;52.018;8.570;2023-02-15T03:07:48;0.80;99.90
23237;DHT22;11787;52.018;8.570;2023-02-15T03:10:15;0.80;99.90
23237;DHT22;11787;52.018;8.570;2023-02-15T03:12:43;0.90;99.90
23237;DHT22;11787;52.018;8.570;2023-02-15T03:15:14;0.80;99.90
23237;DHT22;11787;52.018;8.570;2023-02-15T03:17:42;0.90;99.90
23237;DHT22;11787;52.018;8.570;2023-02-15T03:20:19;0.80;99.90
23237;DHT22;11787;52.018;8.570;2023-02-15T03:22:48;0.90;99.90
23237;DHT22;11787;52.018;8.570;2023-02-15T03:25:17;0.90;99.90
23237;DHT22;11787;52.018;8.570;2023-02-15T03:27:45;0.80;99.90
23237;DHT22;11787;52.018;8.570;2023-02-15T03:30:12;0.80;99.90
23237;DHT22;11787;52.018;8.570;2023-02-15T03:32:38;0.80;99.90
23237;DHT22;11787;52.018;8.570;2023-02-15T03:35:05;0.80;99.90
23237;DHT22;11787;52.018;8.570;2023-02-15T03:40:17;0.70;99.90
23237;DHT22;11787;52.018;8.570;2023-02-15T03:45:49;0.70;99.90
23237;DHT22;11787;52.018;8.570;2023-02-15T03:48:23;0.80;99.90
23237;DHT22;11787;52.018;8.570;2023-02-15T03:50:50;0.70;99.90
23237;DHT22;11787;52.018;8.570;2023-02-15T03:53:35;0.70;99.90
23237;DHT22;11787;52.018;8.570;2023-02-15T03:56:02;0.60;99.90
23237;DHT22;11787;52.018;8.570;2023-02-15T03:58:27;0.70;99.90
23237;DHT22;11787;52.018;8.570;2023-02-15T04:04:09;0.60;99.90
23237;DHT22;11787;52.018;8.570;2023-02-15T04:06:37;0.60;99.90
23237;DHT22;11787;52.018;8.570;2023-02-15T04:09:03;0.60;99.90
23237;DHT22;11787;52.018;8.570;2023-02-15T04:11:47;0.50;99.90
23237;DHT22;11787;52.018;8.570;2023-02-15T04:14:12;0.50;99.90
23237;DHT22;11787;52.018;8.570;2023-02-15T04:16:56;0.50;99.90
23237;DHT22;11787;52.018;8.570;2023-02-15T04:19:22;0.40;99.90
23237;DHT22;11787;52.018;8.570;2023-02-15T04:22:06;0.40;99.90
23237;DHT22;11787;52.018;8.570;2023-02-15T04:24:50;0.40;99.90
23237;DHT22;11787;52.018;8.570;2023-02-15T04:27:34;0.40;99.90
23237;DHT22;11787;52.018;8.570;2023-02-15T04:29:59;0.40;99.90
23237;DHT22;11787;52.018;8.570;2023-02-15T04:32:25;0.30;99.90
23237;DHT22;11787;52.018;8.570;2023-02-15T04:34:50;0.40;99.90
23237;DHT22;11787;52.018;8.570;2023-02-15T04:37:16;0.30;99.90
23237;DHT22;11787;52.018;8.570;2023-02-15T04:39:41;0.30;99.90
23237;DHT22;11787;52.018;8.570;2023-02-15T04:42:07;0.30;99.90
23237;DHT22;11787;52.018;8.570;2023-02-15T04:44:32;0.30;99.90
23237;DHT22;11787;52.018;8.570;2023-02-15T04:46:57;0.30;99.90
23237;DHT22;11787;52.018;8.570;2023-02-15T04:49:23;0.30;99.90
23237;DHT22;11787;52.018;8.570;2023-02-15T04:51:48;0.40;99.90
23237;DHT22;11787;52.018;8.570;2023-02-15T04:54:14;0.40;99.90
23237;DHT22;11787;52.018;8.570;2023-02-15T04:56:39;0.40;99.90
23237;DHT22;11787;52.018;8.570;2023-02-15T04:59:05;0.40;99.90
23237;DHT22;11787;52.018;8.570;2023-02-15T05:01:30;0.40;99.90
23237;DHT22;11787;52.018;8.570;2023-02-15T05:03:56;0.30;99.90
23237;DHT22;11787;52.018;8.570;2023-02-15T05:06:21;0.40;99.90
23237;DHT22;11787;52.018;8.570;2023-02-15T05:08:47;0.40;99.90
23237;DHT22;11787;52.018;8.570;2023-02-15T05:11:12;0.40;99.90
23237;DHT22;11787;52.018;8.570;2023-02-15T05:13:38;0.30;99.90
23237;DHT22;11787;52.018;8.570;2023-02-15T05:16:03;0.30;99.90
23237;DHT22;11787;52.018;8.570;2023-02-15T05:18:29;0.30;99.90
23237;DHT22;11787;52.018;8.570;2023-02-15T05:20:54;0.30;99.90
23237;DHT22;11787;52.018;8.570;2023-02-15T05:23:20;0.30;99.90
23237;DHT22;11787;52.018;8.570;2023-02-15T05:25:46;0.30;99.90
23237;DHT22;11787;52.018;8.570;2023-02-15T05:28:30;0.30;99.90
23237;DHT22;11787;52.018;8.570;2023-02-15T05:31:01;0.20;99.90
23237;DHT22;11787;52.018;8.570;2023-02-15T05:33:27;0.10;99.90
23237;DHT22;11787;52.018;8.570;2023-02-15T05:35:53;0.20;99.90
23237;DHT22;11787;52.018;8.570;2023-02-15T05:38:18;0.10;99.90
23237;DHT22;11787;52.018;8.570;2023-02-15T05:40:44;0.10;99.90
23237;DHT22;11787;52.018;8.570;2023-02-15T05:43:09;0.20;99.90
23237;DHT22;11787;52.018;8.570;2023-02-15T05:45:35;0.20;99.90
23237;DHT22;11787;52.018;8.570;2023-02-15T05:48:00;0.20;99.90
23237;DHT22;11787;52.018;8.570;2023-02-15T05:50:26;0.10;99.90
23237;DHT22;11787;52.018;8.570;2023-02-15T05:52:51;0.10;99.90
23237;DHT22;11787;52.018;8.570;2023-02-15T05:55:17;0.10;99.90
23237;DHT22;11787;52.018;8.570;2023-02-15T05:57:43;0.10;99.90
23237;DHT22;11787;52.018;8.570;2023-02-15T06:00:08;0.10;99.90
23237;DHT22;11787;52.018;8.570;2023-02-15T06:02:35;0.00;99.90
23237;DHT22;11787;52.018;8.570;2023-02-15T06:05:00;0.00;99.90
23237;DHT22;11787;52.018;8.570;2023-02-15T06:07:26;0.00;99.90
23237;DHT22;11787;52.018;8.570;2023-02-15T06:09:51;0.00;99.90
23237;DHT22;11787;52.018;8.570;2023-02-15T06:12:17;0.00;99.90
23237;DHT22;11787;52.018;8.570;2023-02-15T06:14:42;0.00;99.90
23237;DHT22;11787;52.018;8.570;2023-02-15T06:17:08;0.00;99.90
23237;DHT22;11787;52.018;8.570;2023-02-15T06:19:33;0.00;99.90
23237;DHT22;11787;52.018;8.570;2023-02-15T06:21:59;0.00;99.90
23237;DHT22;11787;52.018;8.570;2023-02-15T06:24:25;0.00;99.90
23237;DHT22;11787;52.018;8.570;2023-02-15T06:26:50;0.00;99.90
23237;DHT22;11787;52.018;8.570;2023-02-15T06:29:16;0.00;99.90
23237;DHT22;11787;52.018;8.570;2023-02-15T06:31:41;-0.10;99.90
23237;DHT22;11787;52.018;8.570;2023-02-15T06:34:07;-0.10;99.90
23237;DHT22;11787;52.018;8.570;2023-02-15T06:36:32;-0.10;99.90
23237;DHT22;11787;52.018;8.570;2023-02-15T06:38:58;-0.10;99.90
23237;DHT22;11787;52.018;8.570;2023-02-15T06:41:23;-0.20;99.90
23237;DHT22;11787;52.018;8.570;2023-02-15T06:43:49;-0.20;99.90
23237;DHT22;11787;52.018;8.570;2023-02-15T06:46:14;-0.20;99.90
23237;DHT22;11787;52.018;8.570;2023-02-15T06:48:40;-0.20;99.90
23237;DHT22;11787;52.018;8.570;2023-02-15T06:51:05;-0.20;99.90
23237;DHT22;11787;52.018;8.570;2023-02-15T06:53:31;-0.10;99.90
23237;DHT22;11787;52.018;8.570;2023-02-15T06:56:03;-0.10;99.90
23237;DHT22;11787;52.018;8.570;2023-02-15T06:58:34;-0.20;99.90
23237;DHT22;11787;52.018;8.570;2023-02-15T07:01:00;-0.20;99.90
23237;DHT22;11787;52.018;8.570;2023-02-15T07:03:26;-0.20;99.90
23237;DHT22;11787;52.018;8.570;2023-02-15T07:05:55;-0.30;99.90
23237;DHT22;11787;52.018;8.570;2023-02-15T07:08:21;-0.20;99.90
23237;DHT22;11787;52.018;8.570;2023-02-15T07:10:48;-0.20;99.90
23237;DHT22;11787;52.018;8.570;2023-02-15T07:13:13;-0.10;99.90
23237;DHT22;11787;52.018;8.570;2023-02-15T07:15:39;0.00;99.90
23237;DHT22;11787;52.018;8.570;2023-02-15T07:18:04;0.00;99.90
23237;DHT22;11787;52.018;8.570;2023-02-15T07:20:30;0.00;99.90
23237;DHT22;11787;52.018;8.570;2023-02-15T07:22:55;0.00;99.90
23237;DHT22;11787;52.018;8.570;2023-02-15T07:25:21;0.00;99.90
23237;DHT22;11787;52.018;8.570;2023-02-15T07:27:47;0.10;99.90
23237;DHT22;11787;52.018;8.570;2023-02-15T07:30:13;0.10;99.90
23237;DHT22;11787;52.018;8.570;2023-02-15T07:32:39;0.10;99.90
23237;DHT22;11787;52.018;8.570;2023-02-15T07:35:25;0.10;99.90
23237;DHT22;11787;52.018;8.570;2023-02-15T07:37:50;0.00;99.90
23237;DHT22;11787;52.018;8.570;2023-02-15T07:40:16;0.00;99.90
23237;DHT22;11787;52.018;8.570;2023-02-15T07:42:41;0.10;99.90
23237;DHT22;11787;52.018;8.570;2023-02-15T07:45:07;0.20;99.90
23237;DHT22;11787;52.018;8.570;2023-02-15T07:47:32;0.30;99.90
23237;DHT22;11787;52.018;8.570;2023-02-15T07:49:58;0.30;99.90
23237;DHT22;11787;52.018;8.570;2023-02-15T07:52:23;0.40;99.90
23237;DHT22;11787;52.018;8.570;2023-02-15T07:54:50;0.40;99.90
23237;DHT22;11787;52.018;8.570;2023-02-15T07:57:15;0.50;99.90
23237;DHT22;11787;52.018;8.570;2023-02-15T07:59:41;0.50;99.90
23237;DHT22;11787;52.018;8.570;2023-02-15T08:02:12;0.60;99.90
23237;DHT22;11787;52.018;8.570;2023-02-15T08:04:38;0.60;99.90
23237;DHT22;11787;52.018;8.570;2023-02-15T08:07:04;0.60;99.90
23237;DHT22;11787;52.018;8.570;2023-02-15T08:09:30;0.70;99.90
23237;DHT22;11787;52.018;8.570;2023-02-15T08:11:55;0.70;99.90
23237;DHT22;11787;52.018;8.570;2023-02-15T08:14:21;0.80;99.90
23237;DHT22;11787;52.018;8.570;2023-02-15T08:16:48;0.80;99.90
23237;DHT22;11787;52.018;8.570;2023-02-15T08:21:40;0.80;99.90
23237;DHT22;11787;52.018;8.570;2023-02-15T08:24:06;0.90;99.90
23237;DHT22;11787;52.018;8.570;2023-02-15T08:26:32;1.00;99.90
23237;DHT22;11787;52.018;8.570;2023-02-15T08:28:58;0.90;99.90
23237;DHT22;11787;52.018;8.570;2023-02-15T08:31:23;1.00;99.90
23237;DHT22;11787;52.018;8.570;2023-02-15T08:33:49;1.00;99.90
23237;DHT22;11787;52.018;8.570;2023-02-15T08:36:16;1.00;99.90
23237;DHT22;11787;52.018;8.570;2023-02-15T08:38:42;1.00;99.90
23237;DHT22;11787;52.018;8.570;2023-02-15T08:43:35;1.10;99.90
23237;DHT22;11787;52.018;8.570;2023-02-15T08:46:01;1.20;99.90
23237;DHT22;11787;52.018;8.570;2023-02-15T08:48:26;1.20;99.90
23237;DHT22;11787;52.018;8.570;2023-02-15T08:50:52;1.30;99.90
23237;DHT22;11787;52.018;8.570;2023-02-15T08:53:18;1.30;99.90
23237;DHT22;11787;52.018;8.570;2023-02-15T08:55:47;1.40;99.90
23237;DHT22;11787;52.018;8.570;2023-02-15T08:58:12;1.30;99.90
23237;DHT22;11787;52.018;8.570;2023-02-15T09:00:38;1.40;99.90
23237;DHT22;11787;52.018;8.570;2023-02-15T09:03:03;1.40;99.90
23237;DHT22;11787;52.018;8.570;2023-02-15T09:05:29;1.50;99.90
23237;DHT22;11787;52.018;8.570;2023-02-15T09:07:54;1.50;99.90
23237;DHT22;11787;52.018;8.570;2023-02-15T09:10:20;1.60;99.90
23237;DHT22;11787;52.018;8.570;2023-02-15T09:12:45;1.60;99.90
23237;DHT22;11787;52.018;8.570;2023-02-15T09:15:11;1.60;99.90
23237;DHT22;11787;52.018;8.570;2023-02-15T09:17:36;1.70;99.90
23237;DHT22;11787;52.018;8.570;2023-02-15T09:20:02;1.70;99.90
23237;DHT22;11787;52.018;8.570;2023-02-15T09:22:27;1.80;99.90
23237;DHT22;11787;52.018;8.570;2023-02-15T09:24:55;1.90;99.90
23237;DHT22;11787;52.018;8.570;2023-02-15T09:27:20;1.90;99.90
23237;DHT22;11787;52.018;8.570;2023-02-15T09:29:46;2.00;99.90
23237;DHT22;11787;52.018;8.570;2023-02-15T09:32:13;2.00;99.90
23237;DHT22;11787;52.018;8.570;2023-02-15T09:34:38;2.10;99.90
23237;DHT22;11787;52.018;8.570;2023-02-15T09:37:05;2.10;99.90
23237;DHT22;11787;52.018;8.570;2023-02-15T09:39:30;2.20;99.90
23237;DHT22;11787;52.018;8.570;2023-02-15T09:55:24;2.50;99.90
23237;DHT22;11787;52.018;8.570;2023-02-15T09:57:55;2.50;99.90
23237;DHT22;11787;52.018;8.570;2023-02-15T10:05:23;2.70;99.90
23237;DHT22;11787;52.018;8.570;2023-02-15T10:10:39;2.90;99.90
23237;DHT22;11787;52.018;8.570;2023-02-15T10:23:22;3.30;99.90
23237;DHT22;11787;52.018;8.570;2023-02-15T10:28:31;3.40;99.90
23237;DHT22;11787;52.018;8.570;2023-02-15T10:31:12;3.50;99.90
23237;DHT22;11787;52.018;8.570;2023-02-15T10:33:39;3.60;99.90
23237;DHT22;11787;52.018;8.570;2023-02-15T10:38:39;3.80;99.90
23237;DHT22;11787;52.018;8.570;2023-02-15T10:50:49;4.10;99.90
23237;DHT22;11787;52.018;8.570;2023-02-15T10:58:18;4.40;99.90
23237;DHT22;11787;52.018;8.570;2023-02-15T11:01:05;4.50;99.90
23237;DHT22;11787;52.018;8.570;2023-02-15T11:06:04;4.60;99.90
23237;DHT22;11787;52.018;8.570;2023-02-15T11:08:32;4.60;99.90
23237;DHT22;11787;52.018;8.570;2023-02-15T11:11:00;4.70;99.90
23237;DHT22;11787;52.018;8.570;2023-02-15T11:13:27;4.70;99.90
23237;DHT22;11787;52.018;8.570;2023-02-15T11:15:55;4.80;99.90
23237;DHT22;11787;52.018;8.570;2023-02-15T11:18:27;4.90;99.90
23237;DHT22;11787;52.018;8.570;2023-02-15T11:20:59;5.00;99.90
23237;DHT22;11787;52.018;8.570;2023-02-15T11:23:27;5.00;99.90
23237;DHT22;11787;52.018;8.570;2023-02-15T11:26:02;5.10;99.90
23237;DHT22;11787;52.018;8.570;2023-02-15T11:28:33;5.10;99.90
23237;DHT22;11787;52.018;8.570;2023-02-15T11:31:02;5.20;99.90
23237;DHT22;11787;52.018;8.570;2023-02-15T11:33:35;5.20;99.90
23237;DHT22;11787;52.018;8.570;2023-02-15T11:36:10;5.20;99.90
23237;DHT22;11787;52.018;8.570;2023-02-15T11:38:37;5.30;99.90
23237;DHT22;11787;52.018;8.570;2023-02-15T11:41:11;5.30;99.90
23237;DHT22;11787;52.018;8.570;2023-02-15T11:46:07;5.50;99.90
23237;DHT22;11787;52.018;8.570;2023-02-15T11:48:35;5.70;99.90
23237;DHT22;11787;52.018;8.570;2023-02-15T12:12:21;5.80;99.90
23237;DHT22;11787;52.018;8.570;2023-02-15T12:14:49;5.90;99.90
23237;DHT22;11787;52.018;8.570;2023-02-15T12:17:15;6.10;99.90
23237;DHT22;11787;52.018;8.570;2023-02-15T12:19:41;6.20;99.90
23237;DHT22;11787;52.018;8.570;2023-02-15T12:22:22;6.40;99.90
23237;DHT22;11787;52.018;8.570;2023-02-15T12:24:48;6.50;99.90
23237;DHT22;11787;52.018;8.570;2023-02-15T12:27:17;6.60;99.90
23237;DHT22;11787;52.018;8.570;2023-02-15T12:29:59;6.70;99.90
23237;DHT22;11787;52.018;8.570;2023-02-15T12:32:28;6.80;99.90
23237;DHT22;11787;52.018;8.570;2023-02-15T12:34:56;6.90;99.90
23237;DHT22;11787;52.018;8.570;2023-02-15T12:37:26;7.10;99.90
23237;DHT22;11787;52.018;8.570;2023-02-15T12:39:56;7.10;99.90
23237;DHT22;11787;52.018;8.570;2023-02-15T12:42:22;7.20;99.90
23237;DHT22;11787;52.018;8.570;2023-02-15T12:44:53;7.40;99.90
23237;DHT22;11787;52.018;8.570;2023-02-15T12:47:19;7.50;99.90
23237;DHT22;11787;52.018;8.570;2023-02-15T12:49:45;7.50;99.90
23237;DHT22;11787;52.018;8.570;2023-02-15T12:52:28;7.60;99.90
23237;DHT22;11787;52.018;8.570;2023-02-15T12:54:54;7.70;99.90
23237;DHT22;11787;52.018;8.570;2023-02-15T12:57:29;7.70;99.90
23237;DHT22;11787;52.018;8.570;2023-02-15T13:00:03;7.70;99.90
23237;DHT22;11787;52.018;8.570;2023-02-15T13:02:42;7.80;99.90
23237;DHT22;11787;52.018;8.570;2023-02-15T13:05:25;7.90;99.90
23237;DHT22;11787;52.018;8.570;2023-02-15T13:10:37;8.20;99.90
23237;DHT22;11787;52.018;8.570;2023-02-15T13:13:11;8.40;99.90
23237;DHT22;11787;52.018;8.570;2023-02-15T13:15:43;9.20;99.90
23237;DHT22;11787;52.018;8.570;2023-02-15T13:18:13;10.10;99.90
23237;DHT22;11787;52.018;8.570;2023-02-15T13:20:41;10.60;99.90
23237;DHT22;11787;52.018;8.570;2023-02-15T13:23:20;11.20;99.90
23237;DHT22;11787;52.018;8.570;2023-02-15T13:25:47;11.70;99.90
23237;DHT22;11787;52.018;8.570;2023-02-15T13:28:16;11.90;99.90
23237;DHT22;11787;52.018;8.570;2023-02-15T13:30:43;12.50;99.90
23237;DHT22;11787;52.018;8.570;2023-02-15T13:33:14;12.60;99.90
23237;DHT22;11787;52.018;8.570;2023-02-15T13:35:47;12.30;99.90
23237;DHT22;11787;52.018;8.570;2023-02-15T13:38:18;11.70;99.90
23237;DHT22;11787;52.018;8.570;2023-02-15T13:40:48;11.10;99.90
23237;DHT22;11787;52.018;8.570;2023-02-15T13:49:10;10.40;99.90
23237;DHT22;11787;52.018;8.570;2023-02-15T13:51:43;10.20;99.90
23237;DHT22;11787;52.018;8.570;2023-02-15T13:59:41;9.90;99.90
23237;DHT22;11787;52.018;8.570;2023-02-15T14:10:24;9.90;99.90
23237;DHT22;11787;52.018;8.570;2023-02-15T14:23:02;9.70;99.90
23237;DHT22;11787;52.018;8.570;2023-02-15T14:25:36;9.70;99.90
23237;DHT22;11787;52.018;8.570;2023-02-15T14:28:14;9.70;99.90
23237;DHT22;11787;52.018;8.570;2023-02-15T14:30:44;9.60;99.90
23237;DHT22;11787;52.018;8.570;2023-02-15T14:35:39;9.50;99.90
23237;DHT22;11787;52.018;8.570;2023-02-15T14:40:33;9.40;99.90
23237;DHT22;11787;52.018;8.570;2023-02-15T14:45:52;9.40;99.90
23237;DHT22;11787;52.018;8.570;2023-02-15T14:48:20;9.40;99.90
23237;DHT22;11787;52.018;8.570;2023-02-15T14:50:47;9.40;99.90
23237;DHT22;11787;52.018;8.570;2023-02-15T14:56:12;9.30;99.90
23237;DHT22;11787;52.018;8.570;2023-02-15T15:01:29;9.40;99.90
23237;DHT22;11787;52.018;8.570;2023-02-15T15:03:57;9.40;99.90
23237;DHT22;11787;52.018;8.570;2023-02-15T15:06:25;9.30;99.90
23237;DHT22;11787;52.018;8.570;2023-02-15T15:08:51;9.20;99.90
23237;DHT22;11787;52.018;8.570;2023-02-15T15:13:59;9.10;99.90
23237;DHT22;11787;52.018;8.570;2023-02-15T15:18:50;9.20;99.90
23237;DHT22;11787;52.018;8.570;2023-02-15T15:24:00;9.20;99.90
23237;DHT22;11787;52.018;8.570;2023-02-15T15:26:26;9.10;99.90
23237;DHT22;11787;52.018;8.570;2023-02-15T15:28:53;9.10;99.90
23237;DHT22;11787;52.018;8.570;2023-02-15T15:39:28;8.80;99.90
23237;DHT22;11787;52.018;8.570;2023-02-15T15:41:43;8.80;99.90
23237;DHT22;11787;52.018;8.570;2023-02-15T15:49:39;8.60;99.90
23237;DHT22;11787;52.018;8.570;2023-02-15T15:52:15;8.60;99.90
23237;DHT22;11787;52.018;8.570;2023-02-15T15:54:41;8.60;99.90
23237;DHT22;11787;52.018;8.570;2023-02-15T15:57:12;8.50;99.90
23237;DHT22;11787;52.018;8.570;2023-02-15T15:59:43;8.40;99.90
23237;DHT22;11787;52.018;8.570;2023-02-15T16:02:13;8.40;99.90
23237;DHT22;11787;52.018;8.570;2023-02-15T16:04:41;8.40;99.90
23237;DHT22;11787;52.018;8.570;2023-02-15T16:09:41;8.30;99.90
23237;DHT22;11787;52.018;8.570;2023-02-15T16:12:16;8.20;99.90
23237;DHT22;11787;52.018;8.570;2023-02-15T16:14:44;8.10;99.90
23237;DHT22;11787;52.018;8.570;2023-02-15T16:17:20;8.10;99.90
23237;DHT22;11787;52.018;8.570;2023-02-15T16:19:47;8.00;99.90
23237;DHT22;11787;52.018;8.570;2023-02-15T16:22:15;8.00;99.90
23237;DHT22;11787;52.018;8.570;2023-02-15T16:24:48;7.90;99.90
23237;DHT22;11787;52.018;8.570;2023-02-15T16:27:22;7.90;99.90
23237;DHT22;11787;52.018;8.570;2023-02-15T16:29:51;7.80;99.90
23237;DHT22;11787;52.018;8.570;2023-02-15T16:34:50;7.70;99.90
23237;DHT22;11787;52.018;8.570;2023-02-15T16:37:19;7.60;99.90
23237;DHT22;11787;52.018;8.570;2023-02-15T16:39:47;7.50;99.90
23237;DHT22;11787;52.018;8.570;2023-02-15T16:42:15;7.50;99.90
23237;DHT22;11787;52.018;8.570;2023-02-15T16:44:41;7.40;99.90
23237;DHT22;11787;52.018;8.570;2023-02-15T16:47:27;7.30;99.90
23237;DHT22;11787;52.018;8.570;2023-02-15T16:49:54;7.20;99.90
23237;DHT22;11787;52.018;8.570;2023-02-15T16:52:22;7.20;99.90
23237;DHT22;11787;52.018;8.570;2023-02-15T16:54:50;7.10;99.90
23237;DHT22;11787;52.018;8.570;2023-02-15T16:57:20;7.10;99.90
23237;DHT22;11787;52.018;8.570;2023-02-15T16:59:47;7.00;99.90
23237;DHT22;11787;52.018;8.570;2023-02-15T17:02:17;7.00;99.90
23237;DHT22;11787;52.018;8.570;2023-02-15T17:04:43;7.00;99.90
23237;DHT22;11787;52.018;8.570;2023-02-15T17:07:15;6.90;99.90
23237;DHT22;11787;52.018;8.570;2023-02-15T17:09:51;6.90;99.90
23237;DHT22;11787;52.018;8.570;2023-02-15T17:15:01;6.70;99.90
23237;DHT22;11787;52.018;8.570;2023-02-15T17:17:27;6.70;99.90
23237;DHT22;11787;52.018;8.570;2023-02-15T17:19:56;6.60;99.90
23237;DHT22;11787;52.018;8.570;2023-02-15T17:22:22;6.50;99.90
23237;DHT22;11787;52.018;8.570;2023-02-15T17:24:49;6.40;99.90
23237;DHT22;11787;52.018;8.570;2023-02-15T17:27:23;6.40;99.90
23237;DHT22;11787;52.018;8.570;2023-02-15T17:29:51;6.40;99.90
23237;DHT22;11787;52.018;8.570;2023-02-15T17:32:18;6.30;99.90
23237;DHT22;11787;52.018;8.570;2023-02-15T17:34:48;6.30;99.90
23237;DHT22;11787;52.018;8.570;2023-02-15T17:39:59;6.20;99.90
23237;DHT22;11787;52.018;8.570;2023-02-15T17:42:25;6.20;99.90
23237;DHT22;11787;52.018;8.570;2023-02-15T17:44:51;6.10;99.90
23237;DHT22;11787;52.018;8.570;2023-02-15T17:47:18;6.10;99.90
23237;DHT22;11787;52.018;8.570;2023-02-15T17:49:44;6.10;99.90
23237;DHT22;11787;52.018;8.570;2023-02-15T17:52:13;6.10;99.90
23237;DHT22;11787;52.018;8.570;2023-02-15T17:54:39;6.00;99.90
23237;DHT22;11787;52.018;8.570;2023-02-15T17:57:23;6.00;99.90
23237;DHT22;11787;52.018;8.570;2023-02-15T17:59:50;6.00;99.90
23237;DHT22;11787;52.018;8.570;2023-02-15T18:02:34;5.90;99.90
23237;DHT22;11787;52.018;8.570;2023-02-15T18:05:18;5.80;99.90
23237;DHT22;11787;52.018;8.570;2023-02-15T18:08:03;5.70;99.90
23237;DHT22;11787;52.018;8.570;2023-02-15T18:10:47;5.70;99.90
23237;DHT22;11787;52.018;8.570;2023-02-15T18:13:31;5.60;99.90
23237;DHT22;11787;52.018;8.570;2023-02-15T18:15:57;5.60;99.90
23237;DHT22;11787;52.018;8.570;2023-02-15T18:18:22;5.50;99.90
23237;DHT22;11787;52.018;8.570;2023-02-15T18:20:48;5.50;99.90
23237;DHT22;11787;52.018;8.570;2023-02-15T18:23:14;5.50;99.90
23237;DHT22;11787;52.018;8.570;2023-02-15T18:25:39;5.50;99.90
23237;DHT22;11787;52.018;8.570;2023-02-15T18:28:05;5.50;99.90
23237;DHT22;11787;52.018;8.570;2023-02-15T18:30:34;5.40;99.90
23237;DHT22;11787;52.018;8.570;2023-02-15T18:33:00;5.40;99.90
23237;DHT22;11787;52.018;8.570;2023-02-15T18:35:27;5.30;99.90
23237;DHT22;11787;52.018;8.570;2023-02-15T18:37:54;5.30;99.90
23237;DHT22;11787;52.018;8.570;2023-02-15T18:40:21;5.20;99.90
23237;DHT22;11787;52.018;8.570;2023-02-15T18:42:47;5.20;99.90
23237;DHT22;11787;52.018;8.570;2023-02-15T18:45:17;5.20;99.90
23237;DHT22;11787;52.018;8.570;2023-02-15T18:47:44;5.10;99.90
23237;DHT22;11787;52.018;8.570;2023-02-15T18:50:10;5.00;99.90
23237;DHT22;11787;52.018;8.570;2023-02-15T18:52:36;5.00;99.90
23237;DHT22;11787;52.018;8.570;2023-02-15T18:55:03;5.00;99.90
23237;DHT22;11787;52.018;8.570;2023-02-15T18:57:29;4.90;99.90
23237;DHT22;11787;52.018;8.570;2023-02-15T18:59:55;4.90;99.90